createdAt,value
2022-11-22T00:00:45.227Z,18.08
2022-11-22T00:03:12.145Z,17.35
2022-11-22T00:05:38.810Z,15.82
2022-11-22T00:08:05.667Z,19.27
2022-11-22T00:10:32.756Z,14.23
2022-11-22T00:12:59.512Z,15.80
2022-11-22T00:15:26.330Z,22.77
2022-11-22T00:17:53.039Z,17.92
2022-11-22T00:20:19.702Z,14.63
2022-11-22T00:22:48.891Z,19.58
2022-11-22T00:25:18.015Z,17.33
2022-11-22T00:27:46.984Z,27.15
2022-11-22T00:30:13.719Z,17.90
2022-11-22T00:32:43.062Z,18.95
2022-11-22T00:35:11.217Z,22.45
2022-11-22T00:37:38.087Z,19.77
2022-11-22T00:40:06.231Z,16.83
2022-11-22T00:42:33.086Z,19.52
2022-11-22T00:44:59.760Z,13.30
2022-11-22T00:47:26.459Z,14.55
2022-11-22T00:49:55.465Z,14.82
2022-11-22T00:52:24.746Z,14.00
2022-11-22T00:54:54.765Z,15.93
2022-11-22T00:57:24.174Z,15.65
2022-11-22T00:59:53.043Z,15.73
2022-11-22T01:02:19.754Z,17.10
2022-11-22T01:04:48.745Z,15.38
2022-11-22T01:07:15.470Z,15.63
2022-11-22T01:09:45.138Z,20.23
2022-11-22T01:12:11.844Z,14.30
2022-11-22T01:14:38.608Z,12.32
2022-11-22T01:17:05.352Z,13.27
2022-11-22T01:19:32.464Z,18.15
2022-11-22T01:21:59.281Z,11.93
2022-11-22T01:24:25.992Z,8.88
2022-11-22T01:26:52.642Z,11.88
2022-11-22T01:29:19.303Z,12.50
2022-11-22T01:31:45.975Z,14.73
2022-11-22T01:34:13.159Z,13.20
2022-11-22T01:36:39.793Z,11.98
2022-11-22T01:39:06.452Z,10.07
2022-11-22T01:41:33.090Z,9.13
2022-11-22T01:44:18.671Z,12.02
2022-11-22T01:46:45.487Z,15.63
2022-11-22T01:49:20.249Z,11.43
2022-11-22T01:51:51.256Z,13.27
2022-11-22T01:54:22.518Z,8.90
2022-11-22T01:56:54.330Z,14.48
2022-11-22T01:59:25.143Z,9.60
2022-11-22T02:01:52.536Z,12.68
2022-11-22T02:04:22.657Z,9.48
2022-11-22T02:06:49.281Z,15.43
2022-11-22T02:09:17.033Z,13.55
2022-11-22T02:11:48.408Z,15.38
2022-11-22T02:14:18.724Z,12.35
2022-11-22T02:16:47.656Z,15.23
2022-11-22T02:19:22.136Z,11.30
2022-11-22T02:21:56.835Z,13.77
2022-11-22T02:24:28.761Z,14.52
2022-11-22T02:26:55.381Z,10.85
2022-11-22T02:29:22.261Z,14.40
2022-11-22T02:31:48.932Z,15.02
2022-11-22T02:34:15.637Z,13.45
2022-11-22T02:36:54.214Z,14.52
2022-11-22T02:39:26.236Z,17.30
2022-11-22T02:41:55.108Z,9.77
2022-11-22T02:44:22.601Z,10.93
2022-11-22T02:46:52.260Z,13.82
2022-11-22T02:49:21.526Z,18.77
2022-11-22T02:51:48.669Z,13.68
2022-11-22T02:54:18.191Z,15.98
2022-11-22T02:56:45.055Z,13.27
2022-11-22T02:59:11.760Z,17.45
2022-11-22T03:01:38.619Z,18.70
2022-11-22T03:04:05.383Z,25.63
2022-11-22T03:06:32.169Z,21.48
2022-11-22T03:08:58.882Z,18.80
2022-11-22T03:11:25.624Z,23.58
2022-11-22T03:13:52.482Z,16.98
2022-11-22T03:16:19.156Z,17.60
2022-11-22T03:18:48.318Z,18.52
2022-11-22T03:21:14.982Z,19.35
2022-11-22T03:23:41.681Z,29.38
2022-11-22T03:26:09.665Z,21.10
2022-11-22T03:28:36.376Z,24.63
2022-11-22T03:31:08.370Z,21.73
2022-11-22T03:33:35.834Z,20.60
2022-11-22T03:36:03.350Z,22.23
2022-11-22T03:38:30.646Z,27.50
2022-11-22T03:40:59.722Z,28.25
2022-11-22T03:43:26.528Z,16.90
2022-11-22T03:45:53.494Z,14.20
2022-11-22T03:48:20.435Z,22.88
2022-11-22T03:50:47.114Z,15.48
2022-11-22T03:53:16.168Z,9.57
2022-11-22T03:55:43.003Z,17.70
2022-11-22T03:58:09.657Z,17.13
2022-11-22T04:00:36.933Z,20.05
2022-11-22T04:03:06.216Z,23.52
2022-11-22T04:05:32.946Z,21.05
2022-11-22T04:07:59.622Z,20.27
2022-11-22T04:10:29.131Z,27.17
2022-11-22T04:12:59.316Z,17.30
2022-11-22T04:15:29.518Z,21.70
2022-11-22T04:17:58.558Z,21.63
2022-11-22T04:20:46.688Z,20.63
2022-11-22T04:23:21.456Z,20.80
2022-11-22T04:25:50.536Z,23.50
2022-11-22T04:28:27.314Z,24.85
2022-11-22T04:31:26.924Z,14.93
2022-11-22T04:33:53.579Z,20.27
2022-11-22T04:36:20.234Z,21.50
2022-11-22T04:38:49.417Z,21.65
2022-11-22T04:41:16.089Z,21.88
2022-11-22T04:44:01.322Z,15.65
2022-11-22T04:46:28.006Z,19.58
2022-11-22T04:48:56.884Z,19.95
2022-11-22T04:51:42.112Z,15.00
2022-11-22T04:54:11.335Z,17.77
2022-11-22T04:56:37.959Z,20.50
2022-11-22T04:59:04.743Z,14.30
2022-11-22T05:01:33.771Z,20.50
2022-11-22T05:04:00.696Z,15.32
2022-11-22T05:06:27.297Z,22.92
2022-11-22T05:08:53.954Z,19.00
2022-11-22T05:11:20.600Z,25.20
2022-11-22T05:13:49.548Z,19.63
2022-11-22T05:16:18.830Z,18.27
2022-11-22T05:18:59.272Z,23.55
2022-11-22T05:21:30.465Z,15.23
2022-11-22T05:24:01.761Z,16.48
2022-11-22T05:26:30.951Z,21.90
2022-11-22T05:29:00.971Z,17.27
2022-11-22T05:31:30.195Z,20.27
2022-11-22T05:33:57.668Z,13.38
2022-11-22T05:36:24.811Z,15.18
2022-11-22T05:38:52.007Z,14.60
2022-11-22T05:41:19.482Z,18.48
2022-11-22T05:43:49.211Z,22.90
2022-11-22T05:46:24.697Z,19.98
2022-11-22T05:48:53.483Z,19.60
2022-11-22T05:51:22.864Z,19.27
2022-11-22T05:53:49.862Z,18.50
2022-11-22T05:56:22.769Z,14.45
2022-11-22T05:58:53.118Z,24.33
2022-11-22T06:01:21.957Z,18.60
2022-11-22T06:03:49.422Z,22.25
2022-11-22T06:06:19.418Z,18.45
2022-11-22T06:08:48.090Z,16.35
2022-11-22T06:11:24.572Z,21.70
2022-11-22T06:13:55.606Z,26.25
2022-11-22T06:16:23.079Z,15.90
2022-11-22T06:18:50.484Z,27.40
2022-11-22T06:21:28.611Z,22.13
2022-11-22T06:23:55.853Z,21.15
2022-11-22T06:26:26.197Z,17.40
2022-11-22T06:28:54.009Z,16.30
2022-11-22T06:31:26.206Z,15.65
2022-11-22T06:33:59.558Z,15.10
2022-11-22T06:36:29.376Z,15.60
2022-11-22T06:38:56.671Z,16.08
2022-11-22T06:41:28.711Z,19.25
2022-11-22T06:43:58.694Z,18.13
2022-11-22T06:46:27.133Z,16.45
2022-11-22T06:48:53.934Z,18.25
2022-11-22T06:51:23.234Z,15.25
2022-11-22T06:53:50.802Z,14.70
2022-11-22T06:56:26.587Z,19.15
2022-11-22T06:58:54.160Z,16.17
2022-11-22T07:01:28.176Z,22.30
2022-11-22T07:03:58.045Z,22.05
2022-11-22T07:06:27.302Z,24.23
2022-11-22T07:08:56.932Z,14.05
2022-11-22T07:11:26.083Z,18.73
2022-11-22T07:13:54.416Z,16.67
2022-11-22T07:16:22.039Z,20.55
2022-11-22T07:18:49.252Z,14.38
2022-11-22T07:21:23.751Z,25.13
2022-11-22T07:23:54.717Z,17.40
2022-11-22T07:26:23.095Z,15.68
2022-11-22T07:28:52.739Z,21.10
2022-11-22T07:31:19.511Z,25.63
2022-11-22T07:33:46.585Z,21.02
2022-11-22T07:36:17.615Z,12.13
2022-11-22T07:38:44.367Z,19.58
2022-11-22T07:41:11.712Z,18.00
2022-11-22T07:43:38.723Z,17.13
2022-11-22T07:46:08.237Z,17.35
2022-11-22T07:48:35.355Z,13.80
2022-11-22T07:51:10.825Z,12.98
2022-11-22T07:53:37.502Z,11.40
2022-11-22T07:56:05.265Z,13.98
2022-11-22T07:58:37.466Z,18.90
2022-11-22T08:01:09.237Z,22.85
2022-11-22T08:03:36.781Z,14.30
2022-11-22T08:06:07.757Z,16.55
2022-11-22T08:08:35.155Z,17.40
2022-11-22T08:11:05.588Z,16.73
2022-11-22T08:13:33.079Z,15.02
2022-11-22T08:16:09.794Z,19.25
2022-11-22T08:18:40.016Z,14.75
2022-11-22T08:21:12.249Z,16.63
2022-11-22T08:23:39.823Z,20.63
2022-11-22T08:26:08.741Z,13.27
2022-11-22T08:28:38.261Z,14.52
2022-11-22T08:31:08.541Z,16.55
2022-11-22T08:33:35.718Z,11.07
2022-11-22T08:36:02.563Z,12.93
2022-11-22T08:38:29.528Z,18.85
2022-11-22T08:40:56.631Z,19.88
2022-11-22T08:43:23.628Z,13.10
2022-11-22T08:45:56.457Z,10.38
2022-11-22T08:48:24.466Z,17.63
2022-11-22T08:50:52.605Z,17.40
2022-11-22T08:53:19.313Z,10.43
2022-11-22T08:55:49.468Z,12.60
2022-11-22T08:58:16.327Z,14.65
2022-11-22T09:00:43.251Z,12.82
2022-11-22T09:03:10.527Z,13.02
2022-11-22T09:08:24.085Z,11.60
2022-11-22T09:10:50.821Z,10.50
2022-11-22T09:13:17.498Z,16.92
2022-11-22T09:15:44.174Z,12.07
2022-11-22T09:18:10.888Z,13.98
2022-11-22T09:20:37.575Z,13.82
2022-11-22T09:23:04.484Z,16.52
2022-11-22T09:25:33.272Z,11.27
2022-11-22T09:28:02.934Z,15.80
2022-11-22T09:30:30.931Z,10.63
2022-11-22T09:32:57.572Z,13.85
2022-11-22T09:35:24.332Z,12.02
2022-11-22T09:37:50.980Z,12.85
2022-11-22T09:40:17.789Z,13.30
2022-11-22T09:43:18.193Z,9.82
2022-11-22T09:45:59.514Z,7.82
2022-11-22T09:48:46.463Z,13.18
2022-11-22T09:51:19.344Z,11.60
2022-11-22T09:53:50.559Z,11.43
2022-11-22T09:56:19.898Z,10.50
2022-11-22T09:58:57.327Z,11.05
2022-11-22T10:01:43.924Z,8.95
2022-11-22T10:04:19.601Z,16.00
2022-11-22T10:06:58.510Z,11.23
2022-11-22T10:09:41.922Z,13.98
2022-11-22T10:12:27.655Z,8.77
2022-11-22T10:15:14.516Z,14.65
2022-11-22T10:18:06.019Z,17.40
2022-11-22T10:20:48.447Z,9.85
2022-11-22T10:23:23.491Z,12.40
2022-11-22T10:26:13.998Z,12.13
2022-11-22T10:29:02.591Z,12.98
2022-11-22T10:31:43.626Z,16.02
2022-11-22T10:34:22.129Z,15.25
2022-11-22T10:37:00.305Z,16.42
2022-11-22T10:39:42.639Z,10.45
2022-11-22T10:42:35.543Z,15.35
2022-11-22T10:45:15.268Z,9.88
2022-11-22T10:47:59.125Z,12.63
2022-11-22T10:50:31.618Z,10.27
2022-11-22T10:53:16.324Z,15.23
2022-11-22T10:56:03.693Z,10.93
2022-11-22T10:58:38.618Z,14.48
2022-11-22T11:01:32.533Z,11.80
2022-11-22T11:04:01.134Z,10.80
2022-11-22T11:07:04.237Z,11.27
2022-11-22T11:12:54.752Z,9.93
2022-11-22T11:15:43.847Z,14.40
2022-11-22T11:18:28.895Z,7.85
2022-11-22T11:20:57.769Z,11.57
2022-11-22T11:23:24.394Z,8.45
2022-11-22T11:25:53.378Z,12.07
2022-11-22T11:28:26.613Z,13.50
2022-11-22T11:31:06.866Z,15.32
2022-11-22T11:33:38.097Z,7.47
2022-11-22T11:36:16.856Z,13.05
2022-11-22T11:38:43.560Z,11.77
2022-11-22T11:41:32.033Z,10.32
2022-11-22T11:44:01.151Z,8.23
2022-11-22T11:46:30.196Z,7.70
2022-11-22T11:49:15.653Z,9.10
2022-11-22T11:51:48.497Z,6.43
2022-11-22T11:54:26.377Z,11.68
2022-11-22T11:56:59.139Z,8.65
2022-11-22T11:59:37.768Z,8.43
2022-11-22T12:02:28.395Z,11.23
2022-11-22T12:05:04.475Z,10.77
2022-11-22T12:07:36.423Z,12.07
2022-11-22T12:10:27.840Z,8.43
2022-11-22T12:13:11.556Z,10.32
2022-11-22T12:15:56.853Z,7.38
2022-11-22T12:18:45.590Z,10.63
2022-11-22T12:21:54.324Z,7.18
2022-11-22T12:24:52.677Z,10.68
2022-11-22T12:27:27.411Z,7.60
2022-11-22T12:29:54.206Z,12.00
2022-11-22T12:32:51.913Z,11.82
2022-11-22T12:35:25.962Z,8.75
2022-11-22T12:38:03.454Z,9.30
2022-11-22T12:40:43.647Z,11.20
2022-11-22T12:43:30.277Z,12.30
2022-11-22T12:46:04.458Z,13.10
2022-11-22T12:48:53.078Z,9.32
2022-11-22T12:51:34.597Z,6.90
2022-11-22T12:54:07.197Z,14.15
2022-11-22T12:56:56.549Z,9.50
2022-11-22T12:59:48.240Z,10.55
2022-11-22T13:02:36.651Z,9.40
2022-11-22T13:05:23.797Z,15.63
2022-11-22T13:08:15.342Z,11.18
2022-11-22T13:10:53.241Z,8.93
2022-11-22T13:13:27.903Z,7.82
2022-11-22T13:15:59.797Z,2.47
2022-11-22T13:18:31.521Z,6.50
2022-11-22T13:21:15.320Z,7.68
2022-11-22T13:23:49.993Z,5.55
2022-11-22T13:26:37.664Z,9.73
2022-11-22T13:29:22.231Z,5.97
2022-11-22T13:32:07.355Z,7.53
2022-11-22T13:34:36.889Z,5.43
2022-11-22T13:37:17.021Z,6.93
2022-11-22T13:39:49.031Z,8.93
2022-11-22T13:42:26.434Z,6.70
2022-11-22T13:44:56.173Z,7.85
2022-11-22T13:47:28.407Z,6.45
2022-11-22T13:49:55.353Z,6.07
2022-11-22T13:52:22.248Z,6.93
2022-11-22T13:54:53.097Z,8.70
2022-11-22T13:57:39.722Z,6.43
2022-11-22T14:00:15.490Z,5.20
2022-11-22T14:02:51.494Z,7.60
2022-11-22T14:05:41.270Z,6.68
2022-11-22T14:08:29.636Z,3.63
2022-11-22T14:10:56.691Z,5.15
2022-11-22T14:13:48.154Z,11.65
2022-11-22T14:17:02.318Z,4.63
2022-11-22T14:19:42.334Z,6.90
2022-11-22T14:22:19.193Z,5.82
2022-11-22T14:25:05.468Z,3.20
2022-11-22T14:27:51.090Z,4.57
2022-11-22T14:30:24.667Z,3.30
2022-11-22T14:32:57.850Z,7.25
2022-11-22T14:35:35.390Z,6.88
2022-11-22T14:38:28.924Z,5.72
2022-11-22T14:41:27.843Z,3.13
2022-11-22T14:44:13.460Z,4.45
2022-11-22T14:46:58.480Z,6.03
2022-11-22T14:49:37.092Z,5.40
2022-11-22T14:52:11.655Z,6.07
2022-11-22T14:54:49.388Z,3.88
2022-11-22T14:57:22.379Z,4.72
2022-11-22T15:00:07.416Z,5.30
2022-11-22T15:02:56.709Z,6.80
2022-11-22T15:09:11.959Z,4.25
2022-11-22T15:09:14.436Z,5.57
2022-11-22T15:11:54.098Z,8.30
2022-11-22T15:14:50.467Z,3.95
2022-11-22T15:57:38.451Z,5.20
2022-11-22T16:00:24.606Z,6.43
2022-11-22T16:02:55.432Z,5.93
2022-11-22T16:06:05.425Z,7.57
2022-11-22T16:08:27.922Z,4.97
2022-11-22T16:11:05.285Z,3.58
2022-11-22T16:13:37.771Z,5.80
2022-11-22T16:16:13.133Z,4.85
2022-11-22T16:18:40.907Z,8.18
2022-11-22T16:21:12.769Z,4.55
2022-11-22T16:23:45.269Z,3.85
2022-11-22T16:26:24.951Z,8.10
2022-11-22T16:28:53.797Z,6.68
2022-11-22T16:31:29.861Z,6.82
2022-11-22T16:33:57.292Z,3.90
2022-11-22T16:36:29.976Z,8.15
2022-11-22T16:38:59.534Z,7.65
2022-11-22T16:41:28.403Z,11.07
2022-11-22T16:44:11.323Z,8.45
2022-11-22T16:46:40.686Z,10.77
2022-11-22T16:49:22.991Z,10.57
2022-11-22T16:51:52.942Z,12.57
2022-11-22T16:54:23.756Z,12.27
2022-11-22T16:56:52.670Z,8.80
2022-11-22T16:59:22.022Z,7.65
2022-11-22T17:01:50.436Z,8.13
2022-11-22T17:04:26.230Z,9.35
2022-11-22T17:06:54.201Z,8.13
2022-11-22T17:09:21.077Z,7.93
2022-11-22T17:11:47.855Z,7.95
2022-11-22T17:14:18.187Z,15.90
2022-11-22T17:16:48.067Z,12.60
2022-11-22T17:19:45.416Z,14.40
2022-11-22T17:22:06.775Z,5.68
2022-11-22T17:24:34.025Z,12.77
2022-11-22T17:27:00.951Z,8.55
2022-11-22T17:32:14.630Z,8.57
2022-11-22T17:34:43.902Z,8.65
2022-11-22T17:37:13.717Z,6.53
2022-11-22T17:39:40.743Z,10.13
2022-11-22T17:42:07.878Z,15.43
2022-11-22T17:44:34.591Z,13.23
2022-11-22T17:47:01.251Z,16.42
2022-11-22T17:49:30.935Z,9.65
2022-11-22T17:51:58.131Z,17.27
2022-11-22T17:54:27.204Z,11.73
2022-11-22T17:56:53.877Z,11.30
2022-11-22T17:59:20.602Z,14.43
2022-11-22T18:01:47.276Z,13.85
2022-11-22T18:04:17.457Z,8.82
2022-11-22T18:06:44.184Z,7.97
2022-11-22T18:09:10.813Z,11.68
2022-11-22T18:11:37.526Z,9.85
2022-11-22T18:14:04.174Z,13.25
2022-11-22T18:16:31.196Z,12.27
2022-11-22T18:18:59.048Z,9.13
2022-11-22T18:21:29.414Z,14.88
2022-11-22T18:23:57.817Z,10.93
2022-11-22T18:26:39.364Z,14.43
2022-11-22T18:31:54.444Z,11.18
2022-11-22T18:34:24.735Z,8.05
2022-11-22T18:36:57.703Z,9.50
2022-11-22T18:39:31.602Z,13.27
2022-11-22T18:41:58.493Z,16.38
2022-11-22T18:44:27.376Z,16.50
2022-11-22T18:46:54.099Z,10.52
2022-11-22T18:49:21.060Z,9.30
2022-11-22T18:51:47.798Z,9.93
2022-11-22T18:54:18.026Z,12.23
2022-11-22T18:56:44.750Z,10.60
2022-11-22T18:59:14.863Z,10.30
2022-11-22T19:01:41.746Z,11.27
2022-11-22T19:04:15.085Z,11.07
2022-11-22T19:06:45.534Z,9.70
2022-11-22T19:09:12.328Z,11.27
2022-11-22T19:11:39.013Z,16.45
2022-11-22T19:14:08.940Z,14.13
2022-11-22T19:16:35.695Z,11.82
2022-11-22T19:19:02.467Z,10.13
2022-11-22T19:21:29.781Z,11.77
2022-11-22T19:23:57.322Z,12.00
2022-11-22T19:26:26.517Z,15.40
2022-11-22T19:28:55.640Z,12.30
2022-11-22T19:31:24.901Z,13.38
2022-11-22T19:33:51.648Z,9.23
2022-11-22T19:36:26.403Z,15.50
2022-11-22T19:38:57.504Z,12.13
2022-11-22T19:41:27.731Z,14.70
2022-11-22T19:43:56.303Z,11.43
2022-11-22T19:46:24.419Z,12.70
2022-11-22T19:48:53.009Z,8.23
2022-11-22T19:51:20.506Z,11.55
2022-11-22T19:53:53.231Z,6.97
2022-11-22T19:56:22.824Z,9.35
2022-11-22T19:58:54.498Z,14.98
2022-11-22T20:01:25.442Z,11.57
2022-11-22T20:03:54.117Z,9.43
2022-11-22T20:06:21.235Z,9.52
2022-11-22T20:08:47.883Z,16.95
2022-11-22T20:11:17.472Z,10.32
2022-11-22T20:13:46.787Z,6.50
2022-11-22T20:16:21.962Z,11.57
2022-11-22T20:18:58.790Z,14.20
2022-11-22T20:21:26.848Z,11.98
2022-11-22T20:23:55.078Z,14.27
2022-11-22T20:26:22.614Z,11.48
2022-11-22T20:28:54.978Z,12.63
2022-11-22T20:31:22.760Z,11.68
2022-11-22T20:33:53.168Z,14.25
2022-11-22T20:36:24.818Z,15.93
2022-11-22T20:38:54.932Z,11.95
2022-11-22T20:41:25.299Z,13.40
2022-11-22T20:43:52.646Z,6.40
2022-11-22T20:46:21.670Z,19.50
2022-11-22T20:48:53.033Z,12.40
2022-11-22T20:51:22.237Z,14.00
2022-11-22T20:53:49.331Z,11.63
2022-11-22T20:56:19.218Z,11.55
2022-11-22T20:58:48.999Z,13.77
2022-11-22T21:01:21.949Z,17.65
2022-11-22T21:03:49.606Z,12.65
2022-11-22T21:06:17.983Z,13.35
2022-11-22T21:08:45.918Z,17.45
2022-11-22T21:11:20.068Z,12.15
2022-11-22T21:13:52.236Z,12.20
2022-11-22T21:16:31.598Z,17.35
2022-11-22T21:19:07.190Z,15.40
2022-11-22T21:21:36.065Z,12.40
2022-11-22T21:24:05.089Z,12.65
2022-11-22T21:26:32.756Z,7.65
2022-11-22T21:29:00.383Z,23.13
2022-11-22T21:31:28.086Z,14.05
2022-11-22T21:33:54.897Z,11.45
2022-11-22T21:36:21.824Z,12.82
2022-11-22T21:38:49.052Z,12.23
2022-11-22T21:44:08.600Z,11.88
2022-11-22T21:46:35.235Z,10.10
2022-11-22T21:49:01.933Z,8.07
2022-11-22T21:51:31.789Z,8.32
2022-11-22T21:54:00.000Z,9.82
2022-11-22T21:56:27.278Z,11.05
2022-11-22T21:58:54.429Z,15.50
2022-11-22T22:01:21.907Z,14.35
2022-11-22T22:03:51.057Z,7.32
2022-11-22T22:06:20.769Z,12.95
2022-11-22T22:08:49.704Z,13.18
2022-11-22T22:11:16.529Z,13.27
2022-11-22T22:13:43.409Z,10.60
2022-11-22T22:16:18.770Z,15.25
2022-11-22T22:18:45.969Z,12.57
2022-11-22T22:21:15.612Z,13.35
2022-11-22T22:23:45.588Z,11.85
2022-11-22T22:26:18.206Z,11.38
2022-11-22T22:28:45.810Z,14.63
2022-11-22T22:31:17.260Z,14.07
2022-11-22T22:33:45.706Z,11.60
2022-11-22T22:36:12.858Z,10.98
2022-11-22T22:38:42.106Z,14.07
2022-11-22T22:41:11.977Z,12.55
2022-11-22T22:43:41.918Z,14.18
2022-11-22T22:46:17.713Z,13.13
2022-11-22T22:48:45.187Z,11.25
2022-11-22T22:51:15.123Z,8.93
2022-11-22T22:53:45.018Z,11.13
2022-11-22T22:56:12.898Z,12.35
2022-11-22T22:58:40.029Z,14.57
2022-11-22T23:01:12.447Z,13.52
2022-11-22T23:03:39.552Z,9.48
2022-11-22T23:06:08.552Z,12.32
2022-11-22T23:08:39.012Z,14.70
2022-11-22T23:11:10.941Z,18.02
2022-11-22T23:13:39.844Z,13.15
2022-11-22T23:16:09.236Z,11.98
2022-11-22T23:18:38.951Z,13.82
2022-11-22T23:21:07.514Z,10.00
2022-11-22T23:23:34.964Z,20.90
2022-11-22T23:26:12.839Z,13.23
2022-11-22T23:28:39.891Z,16.60
2022-11-22T23:31:13.859Z,10.20
2022-11-22T23:33:44.571Z,10.75
2022-11-22T23:36:14.220Z,12.30
2022-11-22T23:38:43.745Z,10.82
2022-11-22T23:41:19.822Z,11.38
2022-11-22T23:43:47.508Z,12.45
2022-11-22T23:46:20.605Z,11.05
2022-11-22T23:48:52.004Z,13.52
2022-11-22T23:51:18.622Z,17.67
2022-11-22T23:53:50.234Z,8.20
2022-11-22T23:56:21.828Z,10.65
2022-11-22T23:58:49.086Z,12.93
